Time;durP1;ratioP1;P1;durP2;ratioP2;P2;SDS_P1;SDS_P2;PMS_P1;PMS_P2;Temp;Humidity;BMP_temperature;BMP_pressure;BME280_temperature;BME280_humidity;BME280_pressure;Samples;Min_cycle;Max_cycle;Signal;HPM_P1;HPM_P2
2021/09/04 00:01:08;;;;;;;;;;;;;;;13.60;88.30;101936.56;5052820;28;19929;-45
2021/09/04 00:03:35;;;;;;;;;;;;;;;13.58;88.40;101935.84;5052755;28;19928;-49
2021/09/04 00:06:02;;;;;;;;;;;;;;;13.53;88.85;101937.91;5052495;28;19925;-46
2021/09/04 00:08:28;;;;;;;;;;;;;;;13.61;88.01;101933.00;5052533;28;19933;-48
2021/09/04 00:10:55;;;;;;;;;;;;;;;13.56;88.24;101924.50;5051918;28;20291;-45
2021/09/04 00:13:22;;;;;;;;;;;;;;;13.49;88.78;101925.81;5051206;28;20351;-46
2021/09/04 00:15:48;;;;;;;;;;;;;;;13.53;88.49;101924.69;5051873;28;19924;-42
2021/09/04 00:18:15;;;;;;;;;;;;;;;13.40;89.09;101926.34;5035737;28;20479;-48
2021/09/04 00:20:42;;;;;;;;;;;;;;;13.33;89.63;101923.19;5052570;28;20395;-47
2021/09/04 00:23:08;;;;;;;;;;;;;;;13.33;89.65;101918.78;5052565;28;19925;-46
2021/09/04 00:25:35;;;;;;;;;;;;;;;13.33;89.57;101913.50;5051826;28;19928;-48
2021/09/04 00:28:01;;;;;;;;;;;;;;;13.35;89.19;101916.03;5051956;28;19925;-45
2021/09/04 00:30:28;;;;;;;;;;;;;;;13.32;89.36;101916.22;5051136;28;19928;-45
2021/09/04 00:32:55;;;;;;;;;;;;;;;13.22;89.87;101912.44;5053261;28;19983;-46
2021/09/04 00:35:21;;;;;;;;;;;;;;;13.12;90.46;101914.78;5052288;28;19925;-46
2021/09/04 00:37:48;;;;;;;;;;;;;;;13.15;90.43;101919.88;5052341;28;20326;-47
2021/09/04 00:40:14;;;;;;;;;;;;;;;13.23;89.68;101919.41;5052606;28;19935;-48
2021/09/04 00:42:41;;;;;;;;;;;;;;;13.20;89.81;101923.09;5050594;28;20331;-49
2021/09/04 00:45:08;;;;;;;;;;;;;;;13.14;90.18;101916.38;5052950;28;19932;-45
2021/09/04 00:47:35;;;;;;;;;;;;;;;13.14;90.18;101918.16;5052780;28;19983;-49
2021/09/04 00:50:02;;;;;;;;;;;;;;;13.13;90.57;101911.16;5051911;28;19929;-47
2021/09/04 00:52:28;;;;;;;;;;;;;;;13.06;90.50;101923.03;5051930;28;20351;-44
2021/09/04 00:54:55;;;;;;;;;;;;;;;12.99;90.82;101922.53;5052549;28;19928;-45
2021/09/04 00:57:22;;;;;;;;;;;;;;;13.08;90.02;101921.19;5050867;28;19925;-47
2021/09/04 00:59:48;;;;;;;;;;;;;;;13.08;90.22;101913.25;5051853;28;20418;-46
2021/09/04 01:02:16;;;;;;;;;;;;;;;13.08;90.06;101908.81;5052119;28;19929;-44
2021/09/04 01:04:43;;;;;;;;;;;;;;;13.06;89.99;101910.72;5050647;28;20277;-45
2021/09/04 01:07:09;;;;;;;;;;;;;;;12.96;90.59;101910.38;5051201;28;20410;-43
2021/09/04 01:09:36;;;;;;;;;;;;;;;13.01;90.67;101904.84;5050835;28;19936;-50
2021/09/04 01:12:03;;;;;;;;;;;;;;;12.98;90.57;101899.75;5048622;28;19933;-50
2021/09/04 01:14:29;;;;;;;;;;;;;;;12.93;90.82;101905.28;5051677;28;19925;-48
2021/09/04 01:16:56;;;;;;;;;;;;;;;12.81;91.17;101896.25;5051900;28;19929;-53
2021/09/04 01:19:23;;;;;;;;;;;;;;;12.85;91.25;101899.59;5051429;28;20360;-50
2021/09/04 01:21:49;;;;;;;;;;;;;;;12.79;91.47;101897.31;5052044;28;19925;-51
2021/09/04 01:24:16;;;;;;;;;;;;;;;12.76;91.25;101903.63;5051526;28;19929;-53
2021/09/04 01:26:43;;;;;;;;;;;;;;;12.68;91.96;101900.59;5050953;28;19925;-53
2021/09/04 01:29:09;;;;;;;;;;;;;;;12.71;91.76;101902.16;5051172;28;20658;-50
2021/09/04 01:31:36;;;;;;;;;;;;;;;12.71;91.73;101905.66;5051648;28;19929;-49
2021/09/04 01:34:03;;;;;;;;;;;;;;;12.74;91.56;101902.00;5051588;28;19978;-50
2021/09/04 01:36:30;;;;;;;;;;;;;;;12.74;91.32;101902.00;5051132;28;19954;-49
2021/09/04 01:38:57;;;;;;;;;;;;;;;12.59;92.00;101896.66;5051480;28;20347;-53
2021/09/04 01:41:24;;;;;;;;;;;;;;;12.55;92.25;101903.06;5049305;28;19932;-51
2021/09/04 01:43:51;;;;;;;;;;;;;;;12.61;92.17;101900.06;5049940;28;20015;-50
2021/09/04 01:46:18;;;;;;;;;;;;;;;12.71;91.39;101902.16;5051241;28;19932;-53
2021/09/04 01:48:44;;;;;;;;;;;;;;;12.65;91.84;101906.00;5051352;28;19978;-51
2021/09/04 01:51:11;;;;;;;;;;;;;;;12.69;91.52;101894.34;5051339;28;20271;-51
2021/09/04 01:53:38;;;;;;;;;;;;;;;12.65;91.92;101896.31;5050922;28;20391;-51
2021/09/04 01:56:04;;;;;;;;;;;;;;;12.61;92.37;101888.66;5051483;28;19924;-53
2021/09/04 01:58:31;;;;;;;;;;;;;;;12.67;91.74;101890.94;5049371;28;20011;-53
2021/09/04 02:00:58;;;;;;;;;;;;;;;12.64;91.96;101885.84;5050828;28;20400;-51
2021/09/04 02:03:25;;;;;;;;;;;;;;;12.64;91.79;101888.50;5051018;28;19990;-51
2021/09/04 02:05:52;;;;;;;;;;;;;;;12.60;91.96;101884.34;5049500;28;20010;-49
2021/09/04 02:08:19;;;;;;;;;;;;;;;12.54;92.24;101888.16;5050737;28;19932;-53
2021/09/04 02:10:45;;;;;;;;;;;;;;;12.53;92.04;101889.09;5050947;28;19970;-53
2021/09/04 02:13:12;;;;;;;;;;;;;;;12.50;92.27;101889.25;5049092;28;19925;-53
2021/09/04 02:15:39;;;;;;;;;;;;;;;12.43;92.74;101890.56;5049635;28;19932;-52
2021/09/04 02:18:05;;;;;;;;;;;;;;;12.44;93.13;101884.34;5051118;28;19935;-52
2021/09/04 02:20:32;;;;;;;;;;;;;;;12.44;93.31;101877.28;5049677;28;19925;-50
2021/09/04 02:22:58;;;;;;;;;;;;;;;12.42;93.71;101880.94;5050156;28;19964;-54
2021/09/04 02:25:25;;;;;;;;;;;;;;;12.45;93.98;101884.25;5050660;28;19928;-50
2021/09/04 02:27:52;;;;;;;;;;;;;;;12.48;93.97;101877.97;5049274;28;19991;-48
2021/09/04 02:30:18;;;;;;;;;;;;;;;12.43;94.41;101877.38;5049018;28;20574;-50
2021/09/04 02:32:45;;;;;;;;;;;;;;;12.47;94.07;101865.69;5050743;28;19929;-49
2021/09/04 02:35:12;;;;;;;;;;;;;;;12.45;94.31;101862.31;5049901;28;20391;-51
2021/09/04 02:37:38;;;;;;;;;;;;;;;12.55;93.91;101874.03;5049010;28;19941;-52
2021/09/04 02:40:05;;;;;;;;;;;;;;;12.51;94.06;101875.13;5050701;28;20427;-50
2021/09/04 02:42:32;;;;;;;;;;;;;;;12.43;94.92;101880.00;5048059;28;20435;-53
2021/09/04 02:44:59;;;;;;;;;;;;;;;12.48;94.95;101877.97;5048882;28;19924;-52
2021/09/04 02:47:25;;;;;;;;;;;;;;;12.45;95.07;101878.97;5050450;28;19928;-53
2021/09/04 02:49:52;;;;;;;;;;;;;;;12.43;95.13;101877.38;5050420;28;19928;-52
2021/09/04 02:52:19;;;;;;;;;;;;;;;12.34;95.51;101878.75;5047388;28;19925;-49
2021/09/04 02:54:45;;;;;;;;;;;;;;;12.30;95.90;101870.13;5049224;28;19925;-50
2021/09/04 02:57:12;;;;;;;;;;;;;;;12.33;96.29;101872.59;5048459;28;19929;-52
2021/09/04 02:59:38;;;;;;;;;;;;;;;12.42;95.94;101870.38;5050531;28;19925;-53
2021/09/04 03:02:05;;;;;;;;;;;;;;;12.44;96.30;101874.63;5050310;28;19975;-46
2021/09/04 03:04:32;;;;;;;;;;;;;;;12.40;95.86;101877.53;5049445;28;20299;-43
2021/09/04 03:06:58;;;;;;;;;;;;;;;12.26;97.21;101873.06;5050188;28;19924;-43
2021/09/04 03:09:25;;;;;;;;;;;;;;;12.26;97.25;101878.31;5050080;28;19964;-44
2021/09/04 03:11:52;;;;;;;;;;;;;;;12.33;96.72;101877.88;5048758;28;19929;-43
2021/09/04 03:14:18;;;;;;;;;;;;;;;12.46;96.65;101880.69;5048401;28;19936;-45
2021/09/04 03:16:45;;;;;;;;;;;;;;;12.33;96.94;101877.88;5048966;28;19925;-41
2021/09/04 03:19:12;;;;;;;;;;;;;;;12.32;97.47;101880.59;5049553;28;19925;-44
2021/09/04 03:21:38;;;;;;;;;;;;;;;12.34;97.64;101882.22;5049957;28;19929;-42
2021/09/04 03:24:05;;;;;;;;;;;;;;;12.31;97.84;101873.63;5048134;28;19951;-46
2021/09/04 03:26:32;;;;;;;;;;;;;;;12.36;97.87;101868.09;5049113;28;19932;-44
2021/09/04 03:28:58;;;;;;;;;;;;;;;12.38;98.17;101868.84;5047812;28;20469;-44
2021/09/04 03:31:25;;;;;;;;;;;;;;;12.35;98.26;101867.22;5049833;28;20576;-44
2021/09/04 03:33:52;;;;;;;;;;;;;;;12.36;98.25;101865.47;5049265;28;19975;-45
2021/09/04 03:36:18;;;;;;;;;;;;;;;12.38;98.15;101868.84;5048369;28;20448;-45
2021/09/04 03:38:45;;;;;;;;;;;;;;;12.42;97.77;101867.75;5049825;28;20350;-45
2021/09/04 03:41:12;;;;;;;;;;;;;;;12.47;97.73;101871.81;5049896;28;19928;-45
2021/09/04 03:43:39;;;;;;;;;;;;;;;12.53;97.60;101870.63;5048289;28;19995;-44
2021/09/04 03:46:05;;;;;;;;;;;;;;;12.55;97.66;101868.75;5049478;28;19929;-45
2021/09/04 03:48:33;;;;;;;;;;;;;;;12.51;97.92;101864.59;5050593;28;19925;-46
2021/09/04 03:51:00;;;;;;;;;;;;;;;12.49;98.02;101874.38;5049752;28;19982;-44
2021/09/04 03:53:27;;;;;;;;;;;;;;;12.54;98.25;101871.47;5047987;28;19929;-46
2021/09/04 03:55:53;;;;;;;;;;;;;;;12.57;97.62;101874.81;5048434;28;20387;-45
2021/09/04 03:58:20;;;;;;;;;;;;;;;12.54;98.15;101874.97;5047962;28;19925;-46
2021/09/04 04:00:46;;;;;;;;;;;;;;;12.60;98.10;101882.53;5049942;28;19933;-45
2021/09/04 04:03:14;;;;;;;;;;;;;;;12.57;98.01;101882.72;5049735;28;20376;-45
2021/09/04 04:05:41;;;;;;;;;;;;;;;12.65;97.60;101887.53;5053095;28;19925;-43
2021/09/04 04:08:07;;;;;;;;;;;;;;;12.66;97.61;101894.53;5051892;28;19975;-47
2021/09/04 04:10:34;;;;;;;;;;;;;;;12.62;97.62;101888.56;5053267;28;19925;-44
2021/09/04 04:13:00;;;;;;;;;;;;;;;12.63;97.84;101897.34;5051883;28;20399;-49
2021/09/04 04:15:27;;;;;;;;;;;;;;;12.68;97.75;101893.50;5052229;28;19936;-44
2021/09/04 04:17:54;;;;;;;;;;;;;;;12.63;97.94;101895.53;5053247;28;20371;-45
2021/09/04 04:20:20;;;;;;;;;;;;;;;12.72;97.83;101890.69;5052317;28;20016;-49
2021/09/04 04:22:48;;;;;;;;;;;;;;;12.73;97.80;101895.88;5052583;28;19968;-43
2021/09/04 04:25:14;;;;;;;;;;;;;;;12.73;97.44;101889.75;5052630;28;19924;-44
2021/09/04 04:27:41;;;;;;;;;;;;;;;12.77;97.17;101892.09;5033336;28;19925;-47
2021/09/04 04:30:08;;;;;;;;;;;;;;;12.76;97.12;101889.56;5051380;28;20425;-43
2021/09/04 04:32:34;;;;;;;;;;;;;;;12.74;97.46;101884.38;5051855;28;19929;-43
2021/09/04 04:35:01;;;;;;;;;;;;;;;12.83;96.89;101889.13;5052154;28;19978;-44
2021/09/04 04:37:28;;;;;;;;;;;;;;;12.82;96.48;101903.25;5051105;28;19928;-42
2021/09/04 04:39:55;;;;;;;;;;;;;;;12.74;97.39;101905.50;5053070;28;19974;-43
2021/09/04 04:42:22;;;;;;;;;;;;;;;12.68;97.63;101909.34;5050917;28;19929;-42
2021/09/04 04:44:48;;;;;;;;;;;;;;;12.68;97.97;101906.69;5050680;28;20365;-42
2021/09/04 04:47:15;;;;;;;;;;;;;;;12.70;98.12;101903.97;5052589;28;19974;-42
2021/09/04 04:49:42;;;;;;;;;;;;;;;12.72;97.28;101906.50;5052382;28;19992;-43
2021/09/04 04:52:08;;;;;;;;;;;;;;;12.72;97.82;101912.66;5051990;28;19980;-45
2021/09/04 04:54:35;;;;;;;;;;;;;;;12.73;97.96;101905.59;5051915;28;20449;-47
2021/09/04 04:57:02;;;;;;;;;;;;;;;12.80;97.55;101904.28;5050482;28;19932;-44
2021/09/04 04:59:28;;;;;;;;;;;;;;;12.75;97.53;101911.59;5052130;28;20384;-45
2021/09/04 05:01:55;;;;;;;;;;;;;;;12.72;98.05;101912.66;5052391;28;19931;-46
2021/09/04 05:04:22;;;;;;;;;;;;;;;12.78;97.61;101909.66;5049832;28;20271;-45
2021/09/04 05:06:49;;;;;;;;;;;;;;;12.88;97.51;101909.13;5052482;28;19925;-48
2021/09/04 05:09:16;;;;;;;;;;;;;;;12.84;97.09;101911.09;5050567;28;19929;-46
2021/09/04 05:11:42;;;;;;;;;;;;;;;12.84;97.26;101903.16;5051298;28;19964;-43
2021/09/04 05:14:09;;;;;;;;;;;;;;;12.79;97.33;101906.09;5050269;28;19974;-46
2021/09/04 05:16:35;;;;;;;;;;;;;;;12.79;96.67;101908.72;5051029;28;19924;-46
2021/09/04 05:19:02;;;;;;;;;;;;;;;12.84;96.81;101911.94;5051796;28;19928;-43
2021/09/04 05:21:29;;;;;;;;;;;;;;;12.83;97.02;101915.53;5052004;28;19933;-47
2021/09/04 05:23:55;;;;;;;;;;;;;;;12.83;96.93;101914.69;5051962;28;20368;-44
2021/09/04 05:26:22;;;;;;;;;;;;;;;12.84;96.96;101908.44;5051289;28;20342;-42
2021/09/04 05:28:48;;;;;;;;;;;;;;;12.88;96.63;101915.25;5050886;28;19932;-43
2021/09/04 05:31:15;;;;;;;;;;;;;;;12.81;96.92;101911.28;5051232;28;20010;-45
2021/09/04 05:33:42;;;;;;;;;;;;;;;12.78;96.97;101912.28;5051282;28;19947;-46
2021/09/04 05:36:08;;;;;;;;;;;;;;;12.82;96.81;101913.81;5051911;28;19925;-44
2021/09/04 05:38:35;;;;;;;;;;;;;;;12.88;96.66;101911.78;5052982;28;19971;-49
2021/09/04 05:41:03;;;;;;;;;;;;;;;12.90;96.84;101910.75;5051611;28;19948;-49
2021/09/04 05:43:29;;;;;;;;;;;;;;;13.02;96.29;101907.38;5048207;28;19935;-52
2021/09/04 05:45:56;;;;;;;;;;;;;;;13.08;95.53;101911.44;5051607;28;20445;-50
2021/09/04 05:48:23;;;;;;;;;;;;;;;13.01;95.55;101910.97;5051437;28;19924;-53
2021/09/04 05:50:49;;;;;;;;;;;;;;;13.06;95.75;101904.56;5051217;28;19929;-49
2021/09/04 05:53:16;;;;;;;;;;;;;;;13.08;95.68;101913.25;5050176;28;19932;-52
2021/09/04 05:55:42;;;;;;;;;;;;;;;13.12;95.41;101920.06;5051302;28;20363;-52
2021/09/04 05:58:09;;;;;;;;;;;;;;;13.06;95.28;101913.34;5049392;28;19930;-49
2021/09/04 06:00:36;;;;;;;;;;;;;;;13.11;94.93;101927.09;5050851;28;19929;-52
2021/09/04 06:03:03;;;;;;;;;;;;;;;13.14;94.85;101924.31;5049891;28;19991;-50
2021/09/04 06:05:31;;;;;;;;;;;;;;;13.08;94.92;101927.28;5050780;28;19952;-50
2021/09/04 06:07:58;;;;;;;;;;;;;;;13.05;95.02;101927.47;5050991;28;19935;-53
2021/09/04 06:10:25;;;;;;;;;;;;;;;13.09;95.06;101917.56;5050822;28;20375;-52
2021/09/04 06:12:54;;;;;;;;;;;;;;;13.12;94.82;101920.06;5049374;28;20410;-50
2021/09/04 06:15:20;;;;;;;;;;;;;;;13.16;94.50;101913.66;5050660;28;19928;-51
2021/09/04 06:17:47;;;;;;;;;;;;;;;13.25;93.67;101921.03;5050147;28;19931;-50
2021/09/04 06:20:14;;;;;;;;;;;;;;;13.23;93.47;101916.78;5050270;28;20342;-51
2021/09/04 06:22:40;;;;;;;;;;;;;;;13.31;93.52;101915.38;5050578;28;19932;-50
2021/09/04 06:25:07;;;;;;;;;;;;;;;13.32;92.75;101921.50;5050765;28;19931;-50
2021/09/04 06:27:34;;;;;;;;;;;;;;;13.32;92.20;101922.38;5048720;28;20419;-51
2021/09/04 06:30:02;;;;;;;;;;;;;;;13.34;91.98;101922.25;5050399;28;19932;-50
2021/09/04 06:32:29;;;;;;;;;;;;;;;13.37;91.86;101914.19;5049060;28;19933;-48
2021/09/04 06:34:55;;;;;;;;;;;;;;;13.37;91.81;101908.06;5049090;28;19924;-53
2021/09/04 06:37:22;;;;;;;;;;;;;;;13.36;91.42;101909.81;5048622;28;19925;-53
2021/09/04 06:39:49;;;;;;;;;;;;;;;13.33;91.27;101912.63;5049652;28;20380;-53
2021/09/04 06:42:15;;;;;;;;;;;;;;;13.43;90.71;101912.94;5048831;28;19966;-49
2021/09/04 06:44:43;;;;;;;;;;;;;;;13.45;90.61;101919.84;5049767;28;19925;-51
2021/09/04 06:47:09;;;;;;;;;;;;;;;13.45;90.23;101911.09;5032524;28;19974;-52
2021/09/04 06:49:36;;;;;;;;;;;;;;;13.49;89.85;101912.59;5049049;28;19974;-50
2021/09/04 06:52:03;;;;;;;;;;;;;;;13.48;89.84;101918.81;5049032;28;19952;-49
2021/09/04 06:54:29;;;;;;;;;;;;;;;13.54;89.54;101921.09;5049942;28;19929;-52
2021/09/04 06:56:56;;;;;;;;;;;;;;;13.60;89.23;101917.22;5049166;28;19929;-51
2021/09/04 06:59:23;;;;;;;;;;;;;;;13.67;88.90;101918.56;5048838;28;19928;-52
2021/09/04 07:01:51;;;;;;;;;;;;;;;13.73;88.19;101930.53;5050165;28;19932;-51
2021/09/04 07:04:19;;;;;;;;;;;;;;;13.75;87.91;101933.94;5032230;28;20019;-50
2021/09/04 07:06:45;;;;;;;;;;;;;;;13.70;87.82;101934.22;5049963;28;19928;-49
2021/09/04 07:09:12;;;;;;;;;;;;;;;13.76;86.45;101933.00;5049888;28;19936;-48
2021/09/04 07:11:39;;;;;;;;;;;;;;;13.71;86.24;101935.09;5048025;28;19929;-47
2021/09/04 07:14:10;;;;;;;;;;;;;;;13.71;85.47;101930.63;5048075;28;19924;-44
2021/09/04 07:16:36;;;;;;;;;;;;;;;13.76;85.65;101933.00;5050064;28;20027;-44
2021/09/04 07:19:03;;;;;;;;;;;;;;;13.85;85.27;101937.72;5050194;28;20388;-46
2021/09/04 07:21:30;;;;;;;;;;;;;;;13.82;85.89;101935.25;5050127;28;19924;-43
2021/09/04 07:23:56;;;;;;;;;;;;;;;13.92;85.60;101939.06;5049711;28;19933;-46
2021/09/04 07:26:23;;;;;;;;;;;;;;;13.90;85.53;101930.34;5048964;28;19928;-43
2021/09/04 07:28:50;;;;;;;;;;;;;;;14.04;84.80;101934.78;5047825;28;19929;-44
2021/09/04 07:31:16;;;;;;;;;;;;;;;14.05;84.31;101940.94;5048348;28;19955;-44
2021/09/04 07:33:43;;;;;;;;;;;;;;;14.08;84.05;101938.09;5049758;28;19931;-43
2021/09/04 07:36:10;;;;;;;;;;;;;;;14.16;83.78;101941.09;5049604;28;19928;-42
2021/09/04 07:38:36;;;;;;;;;;;;;;;14.21;84.09;101944.31;5050286;28;19978;-45
2021/09/04 07:41:03;;;;;;;;;;;;;;;14.20;83.71;101947.91;5053714;28;19928;-45
2021/09/04 07:43:30;;;;;;;;;;;;;;;14.17;83.35;101953.38;5049969;28;19975;-45
2021/09/04 07:45:56;;;;;;;;;;;;;;;14.24;83.05;101957.34;5053840;28;19975;-45
2021/09/04 07:48:25;;;;;;;;;;;;;;;14.14;83.10;101949.13;5052249;28;20387;-48
2021/09/04 07:50:52;;;;;;;;;;;;;;;14.28;82.47;101948.25;5052011;28;20399;-45
2021/09/04 07:53:19;;;;;;;;;;;;;;;14.40;82.27;101951.94;5052587;28;20430;-45
2021/09/04 07:55:46;;;;;;;;;;;;;;;14.36;81.43;101963.66;5053389;28;19951;-48
2021/09/04 07:58:13;;;;;;;;;;;;;;;14.34;81.63;101957.59;5052230;28;20407;-48
2021/09/04 08:00:39;;;;;;;;;;;;;;;14.43;81.95;101964.13;5052681;28;19925;-43
2021/09/04 08:03:06;;;;;;;;;;;;;;;14.48;81.58;101964.66;5053185;28;19924;-46
2021/09/04 08:05:33;;;;;;;;;;;;;;;14.46;81.10;101969.22;5051878;28;19979;-49
2021/09/04 08:08:00;;;;;;;;;;;;;;;14.49;80.53;101971.66;5053176;28;19932;-45
2021/09/04 08:10:27;;;;;;;;;;;;;;;14.52;80.28;101968.84;5034754;28;19925;-47
2021/09/04 08:12:54;;;;;;;;;;;;;;;14.53;80.74;101962.56;5050439;28;19951;-50
2021/09/04 08:15:20;;;;;;;;;;;;;;;14.54;80.26;101964.28;5051665;28;19924;-48
2021/09/04 08:17:47;;;;;;;;;;;;;;;14.67;80.09;101970.50;5053078;28;19932;-43
2021/09/04 08:20:14;;;;;;;;;;;;;;;14.67;79.89;101965.22;5052901;28;19925;-43
2021/09/04 08:22:41;;;;;;;;;;;;;;;14.75;79.53;101963.88;5052619;28;19929;-44
2021/09/04 08:25:07;;;;;;;;;;;;;;;14.80;79.47;101952.03;5053076;28;19932;-47
2021/09/04 08:27:34;;;;;;;;;;;;;;;14.88;79.08;101952.34;5051221;28;20296;-45
2021/09/04 08:30:01;;;;;;;;;;;;;;;15.02;78.79;101959.41;5052588;28;19976;-45
2021/09/04 08:32:28;;;;;;;;;;;;;;;15.23;77.74;101950.97;5051649;28;20757;-44
2021/09/04 08:34:54;;;;;;;;;;;;;;;15.30;77.16;101941.66;5052508;28;20368;-49
2021/09/04 08:37:21;;;;;;;;;;;;;;;15.40;76.79;101949.00;5052249;28;19932;-46
2021/09/04 08:39:48;;;;;;;;;;;;;;;15.47;76.41;101952.91;5052653;28;19931;-44
2021/09/04 08:42:14;;;;;;;;;;;;;;;15.41;76.07;101940.94;5050768;28;19925;-49
2021/09/04 08:44:41;;;;;;;;;;;;;;;15.38;76.25;101949.94;5052059;28;19975;-48
2021/09/04 08:47:08;;;;;;;;;;;;;;;15.67;75.43;101939.13;5052463;28;19998;-43
2021/09/04 08:49:35;;;;;;;;;;;;;;;15.92;75.07;101939.25;5050712;28;19943;-43
2021/09/04 08:52:03;;;;;;;;;;;;;;;16.20;73.29;101941.63;5052099;28;19932;-44
2021/09/04 08:54:30;;;;;;;;;;;;;;;16.30;72.99;101940.97;5050839;28;19925;-43
2021/09/04 08:56:56;;;;;;;;;;;;;;;16.54;72.44;101952.47;5050720;28;19980;-45
2021/09/04 08:59:23;;;;;;;;;;;;;;;16.73;71.51;101954.59;5052217;28;19929;-47
2021/09/04 09:01:50;;;;;;;;;;;;;;;16.80;70.77;101948.84;5052418;28;19929;-44
2021/09/04 09:04:18;;;;;;;;;;;;;;;16.99;70.56;101962.50;5051291;28;19924;-43
2021/09/04 09:06:45;;;;;;;;;;;;;;;16.83;69.74;101967.22;5052475;28;20368;-47
2021/09/04 09:09:16;;;;;;;;;;;;;;;16.87;69.73;101972.19;5050732;28;19952;-47
2021/09/04 09:11:43;;;;;;;;;;;;;;;16.72;70.15;101971.50;5051186;28;19929;-50
2021/09/04 09:14:09;;;;;;;;;;;;;;;16.84;69.87;101971.56;5050269;28;19929;-44
2021/09/04 09:16:36;;;;;;;;;;;;;;;17.06;69.30;101958.41;5052122;28;19925;-46
2021/09/04 09:19:05;;;;;;;;;;;;;;;17.38;69.19;101963.09;5050230;28;20340;-47
2021/09/04 09:21:39;;;;;;;;;;;;;;;17.50;68.25;101960.44;5051800;28;20338;-48
2021/09/04 09:24:06;;;;;;;;;;;;;;;17.73;67.78;101964.00;5051633;28;19925;-48
2021/09/04 09:26:33;;;;;;;;;;;;;;;17.87;66.74;101960.25;5048012;28;19936;-44
2021/09/04 09:29:16;;;;;;;;;;;;;;;18.19;65.57;101964.88;5050468;28;20311;-48
2021/09/04 09:31:43;;;;;;;;;;;;;;;18.59;64.39;101966.97;5050958;28;19933;-46
2021/09/04 09:34:10;;;;;;;;;;;;;;;18.72;64.18;101959.66;5048967;28;19929;-45
2021/09/04 09:36:47;;;;;;;;;;;;;;;18.64;62.33;101956.78;5050002;28;19963;-46
2021/09/04 09:39:14;;;;;;;;;;;;;;;18.95;61.64;101951.63;5050503;28;20007;-48
2021/09/04 09:41:49;;;;;;;;;;;;;;;19.01;62.89;101948.44;5049515;28;19925;-42
2021/09/04 09:44:20;;;;;;;;;;;;;;;19.32;61.62;101945.84;5050169;28;19928;-50
2021/09/04 09:46:47;;;;;;;;;;;;;;;19.66;62.43;101944.75;5051251;28;20372;-44
2021/09/04 09:49:14;;;;;;;;;;;;;;;19.90;59.67;101947.97;5049606;28;20218;-43
2021/09/04 09:51:41;;;;;;;;;;;;;;;19.71;59.26;101943.38;5050858;28;19925;-44
2021/09/04 09:54:07;;;;;;;;;;;;;;;19.51;59.00;101941.59;5049127;28;20312;-47
2021/09/04 09:56:34;;;;;;;;;;;;;;;19.68;59.03;101942.81;5049563;28;19929;-49
2021/09/04 09:59:00;;;;;;;;;;;;;;;20.02;58.50;101937.22;5048671;28;19932;-48
2021/09/04 10:01:27;;;;;;;;;;;;;;;20.06;58.16;101941.31;5048762;28;20360;-44
2021/09/04 10:03:54;;;;;;;;;;;;;;;20.43;57.31;101936.16;5049927;28;20740;-45
2021/09/04 10:06:21;;;;;;;;;;;;;;;20.68;56.42;101939.34;5050012;28;19925;-43
2021/09/04 10:08:47;;;;;;;;;;;;;;;20.99;56.20;101933.00;5049155;28;19932;-42
2021/09/04 10:11:14;;;;;;;;;;;;;;;21.03;56.62;101924.53;5048248;28;19990;-46
2021/09/04 10:13:41;;;;;;;;;;;;;;;21.36;55.68;101930.38;5049112;28;19925;-43
2021/09/04 10:16:08;;;;;;;;;;;;;;;21.68;54.89;101928.34;5048967;28;20395;-44
2021/09/04 10:18:35;;;;;;;;;;;;;;;21.85;54.51;101922.22;5048929;28;19968;-47
2021/09/04 10:21:08;;;;;;;;;;;;;;;21.55;54.30;101931.34;5050487;28;19932;-46
2021/09/04 10:23:36;;;;;;;;;;;;;;;22.07;54.63;101941.56;5049554;28;19928;-48
2021/09/04 10:26:21;;;;;;;;;;;;;;;21.96;53.41;101934.56;5049646;28;20424;-46
2021/09/04 10:28:57;;;;;;;;;;;;;;;22.37;53.29;101918.97;5048831;28;19929;-42
2021/09/04 10:31:43;;;;;;;;;;;;;;;22.46;52.50;101917.25;5048614;28;19924;-47
2021/09/04 10:34:11;;;;;;;;;;;;;;;22.31;52.62;101918.72;5049057;28;19932;-46
2021/09/04 10:36:39;;;;;;;;;;;;;;;22.49;52.32;101918.78;5049672;28;19928;-49
2021/09/04 10:39:05;;;;;;;;;;;;;;;22.44;51.84;101920.06;5032141;28;19925;-48
2021/09/04 10:41:33;;;;;;;;;;;;;;;22.85;51.72;101910.69;5047401;28;19925;-46
2021/09/04 10:44:04;;;;;;;;;;;;;;;23.02;50.54;101911.69;5047899;28;19925;-44
2021/09/04 10:46:32;;;;;;;;;;;;;;;23.10;49.97;101912.56;5048057;28;19936;-45
2021/09/04 10:49:00;;;;;;;;;;;;;;;23.28;50.40;101911.72;5049094;28;20402;-47
2021/09/04 10:52:05;;;;;;;;;;;;;;;23.58;48.65;101902.31;5049803;28;19924;-46
2021/09/04 10:54:38;;;;;;;;;;;;;;;23.55;48.64;101901.81;5046424;28;19932;-46
2021/09/04 10:57:12;;;;;;;;;;;;;;;23.86;47.47;101894.06;5044899;28;19928;-46
2021/09/04 11:00:08;;;;;;;;;;;;;;;23.89;47.21;101890.25;5048043;28;19947;-49
2021/09/04 11:02:43;;;;;;;;;;;;;;;24.13;47.23;101882.25;5049597;28;20313;-48
2021/09/04 11:05:29;;;;;;;;;;;;;;;24.22;45.74;101883.09;5049546;28;19929;-48
2021/09/04 11:08:02;;;;;;;;;;;;;;;24.76;45.52;101882.66;5049869;28;19967;-46
2021/09/04 11:10:28;;;;;;;;;;;;;;;24.90;45.92;101877.63;5049687;28;19936;-49
2021/09/04 11:13:13;;;;;;;;;;;;;;;24.85;46.43;101872.72;5046916;28;19924;-49
2021/09/04 11:15:40;;;;;;;;;;;;;;;25.02;44.83;101878.09;5049792;28;19929;-45
2021/09/04 11:18:07;;;;;;;;;;;;;;;25.04;44.82;101881.44;5050055;28;19935;-48
2021/09/04 11:20:41;;;;;;;;;;;;;;;25.19;44.22;101868.13;5049659;28;19983;-48
2021/09/04 11:23:08;;;;;;;;;;;;;;;25.38;44.01;101866.94;5049109;28;19936;-46
2021/09/04 11:25:35;;;;;;;;;;;;;;;25.29;44.08;101875.00;5048432;28;19972;-46
2021/09/04 11:28:01;;;;;;;;;;;;;;;25.20;43.33;101865.28;5046967;28;19925;-47
2021/09/04 11:30:28;;;;;;;;;;;;;;;24.78;44.03;101875.25;5049295;28;19928;-44
2021/09/04 11:32:55;;;;;;;;;;;;;;;25.13;44.18;101877.75;5050274;28;19924;-46
2021/09/04 11:35:22;;;;;;;;;;;;;;;25.38;43.54;101873.16;5048154;28;19925;-46
2021/09/04 11:37:55;;;;;;;;;;;;;;;25.44;42.56;101866.22;5049516;28;20399;-45
2021/09/04 11:40:24;;;;;;;;;;;;;;;25.63;42.60;101876.59;5049753;28;20445;-44
2021/09/04 11:42:50;;;;;;;;;;;;;;;25.91;42.08;101876.13;5047692;28;19956;-45
2021/09/04 11:45:19;;;;;;;;;;;;;;;26.21;41.85;101879.00;5049578;28;19925;-50
2021/09/04 11:47:47;;;;;;;;;;;;;;;26.37;41.18;101877.19;5049629;28;19931;-50
2021/09/04 11:50:24;;;;;;;;;;;;;;;26.35;40.71;101877.38;5048523;28;20011;-52
2021/09/04 11:52:50;;;;;;;;;;;;;;;26.06;41.19;101886.19;5048920;28;19929;-51
2021/09/04 11:55:18;;;;;;;;;;;;;;;26.40;40.70;101884.94;5049415;28;20396;-53
2021/09/04 11:57:45;;;;;;;;;;;;;;;26.56;40.06;101871.34;5047837;28;20276;-53
2021/09/04 12:00:13;;;;;;;;;;;;;;;26.64;41.08;101878.50;5047468;28;19932;-59
2021/09/04 12:02:50;;;;;;;;;;;;;;;26.31;42.84;101873.38;5048173;28;19925;-57
2021/09/04 12:05:18;;;;;;;;;;;;;;;26.10;42.51;101874.03;5049099;28;19928;-55
2021/09/04 12:07:44;;;;;;;;;;;;;;;26.54;41.89;101875.22;5049370;28;19975;-53
2021/09/04 12:10:11;;;;;;;;;;;;;;;26.10;42.53;101877.56;5048138;28;19924;-57
2021/09/04 12:12:39;;;;;;;;;;;;;;;26.28;41.96;101866.47;5046932;28;20410;-56
2021/09/04 12:15:06;;;;;;;;;;;;;;;26.47;41.92;101872.41;5048498;28;19971;-56
2021/09/04 12:17:33;;;;;;;;;;;;;;;26.82;42.35;101860.16;5048941;28;20429;-59
2021/09/04 12:20:10;;;;;;;;;;;;;;;26.52;42.47;101869.16;5049459;28;19925;-53
2021/09/04 12:22:36;;;;;;;;;;;;;;;26.27;42.22;101870.22;5048524;28;20391;-50
2021/09/04 12:25:03;;;;;;;;;;;;;;;26.21;41.42;101867.41;5051008;28;19964;-57
2021/09/04 12:27:37;;;;;;;;;;;;;;;26.55;41.44;101863.44;5050807;28;20280;-52
2021/09/04 12:30:04;;;;;;;;;;;;;;;26.23;41.26;101860.81;5052964;28;19928;-57
2021/09/04 12:32:35;;;;;;;;;;;;;;;26.62;41.49;101856.28;5054436;28;19933;-56
2021/09/04 12:35:02;;;;;;;;;;;;;;;26.37;40.71;101861.88;5052740;28;20672;-49
2021/09/04 12:37:29;;;;;;;;;;;;;;;26.01;41.55;101865.09;5049168;28;20063;-58